Airfield :
LOGIN :

Register | Disclaimer

   EN    FR    IT 

 










Legend :    VFR   Marginal VFR   IFR   Intensive IFR   Very Intensive IFR
Visi :
Ceiling :
>= 8 km
>= 3000ft
5 to 8 km
1000 to 3000 ft
1500m to 5 km
500 to 1000 ft
800 to 1500m
200 to 500 ft
< 800m
< 200 ft
Symbols :   Thunderstorms  Fog  Heavy snow  Heavy precipitations  Wind > 20 kt
SIGMETs :     Misc.  Thunderstorms  Icing  Turbulence  Mountain Waves  Volcanic Ashes






- Airport Elevation : 142 ft
- IATA code : ALC


LEAL - Alicante

CURRENT METAR :
  • 131530Z 30014KT 280V340 9999 FEW011 22/06 Q1008 NOSIG

EXPIRED METARs :
  • 131500Z 32014KT 280V350 9999 SCT057 22/08 Q1008 NOSIG
  • 131430Z 30008KT 260V350 9999 FEW057 22/10 Q1007 NOSIG
  • 131400Z 31017KT 260V350 9999 FEW057 22/09 Q1007 NOSIG
  • 131330Z 29016G28KT 270V340 9999 FEW060 22/10 Q1007 NOSIG
  • 131300Z 29019G31KT 9999 FEW059 23/09 Q1006 NOSIG
  • 131230Z 30022G35KT 270V330 9999 FEW059 23/09 Q1006 NOSIG

TAF TAF LEAL
Valid from the 13 at 12:00 until the 14 at 12:00 UTC


131100Z 1312/1412 30018G30KT 9999 FEW060 TX22/1313Z TN11/1406Z
TEMPO 1314/1317 36010KT
BECMG 1316/1318 VRB04KT
BECMG 1407/1409 27015G25KT



MET'MAP, your aeronautical weather chart ! - Copyright ORBIFLY December 2007 - Disclaimer

ORBIFLY MET'MAP TEAM :

Programming & Development : Alexandra Zaïnal
Concept & Development : Baudouin d'Aumeries
Co-Development & Prog : Marc-Olivier Méhu
Technical & hardware support : Manuel Goepfert

Contact : metmap@orbifly.com




SOURCES & CREDITS :

   NOAA